createdAt,value
2018-06-29T00:00:06.073Z,16.60
2018-06-29T00:01:06.020Z,16.56
2018-06-29T00:02:05.964Z,16.58
2018-06-29T00:03:05.910Z,16.59
2018-06-29T00:04:05.856Z,16.50
2018-06-29T00:05:05.804Z,16.58
2018-06-29T00:06:05.749Z,16.65
2018-06-29T00:07:05.700Z,16.56
2018-06-29T00:08:05.640Z,16.55
2018-06-29T00:09:05.590Z,16.60
2018-06-29T00:10:05.533Z,16.62
2018-06-29T00:11:05.479Z,16.56
2018-06-29T00:12:05.428Z,16.55
2018-06-29T00:13:05.376Z,16.67
2018-06-29T00:14:05.319Z,16.58
2018-06-29T00:15:05.264Z,16.62
2018-06-29T00:16:05.211Z,16.59
2018-06-29T00:17:05.157Z,16.53
2018-06-29T00:18:05.104Z,16.56
2018-06-29T00:19:05.057Z,16.65
2018-06-29T00:20:05.001Z,16.58
2018-06-29T00:21:04.943Z,16.55
2018-06-29T00:22:04.888Z,16.60
2018-06-29T00:23:04.837Z,16.62
2018-06-29T00:24:04.781Z,16.56
2018-06-29T00:25:04.727Z,16.56
2018-06-29T00:26:04.673Z,16.55
2018-06-29T00:27:04.622Z,16.58
2018-06-29T00:28:04.568Z,16.53
2018-06-29T00:29:04.512Z,16.52
2018-06-29T00:30:04.457Z,16.55
2018-06-29T00:31:04.404Z,16.58
2018-06-29T00:32:04.351Z,16.56
2018-06-29T00:33:04.297Z,16.56
2018-06-29T00:34:04.243Z,16.55
2018-06-29T00:35:04.190Z,16.58
2018-06-29T00:36:04.137Z,16.56
2018-06-29T00:37:04.086Z,16.52
2018-06-29T00:38:04.027Z,16.59
2018-06-29T00:39:03.973Z,16.55
2018-06-29T00:40:03.919Z,16.60
2018-06-29T00:41:03.866Z,16.55
2018-06-29T00:42:03.811Z,16.56
2018-06-29T00:43:03.760Z,16.56
2018-06-29T00:44:03.705Z,16.58
2018-06-29T00:45:03.652Z,16.55
2018-06-29T00:46:03.598Z,16.55
2018-06-29T00:47:03.543Z,16.59
2018-06-29T00:48:03.498Z,16.55
2018-06-29T00:49:03.440Z,16.48
2018-06-29T00:50:03.381Z,16.50
2018-06-29T00:51:03.328Z,16.56
2018-06-29T00:52:03.276Z,16.53
2018-06-29T00:53:03.222Z,16.50
2018-06-29T00:54:03.167Z,16.52
2018-06-29T00:55:03.117Z,16.56
2018-06-29T00:56:03.060Z,16.45
2018-06-29T00:57:03.005Z,16.55
2018-06-29T00:58:02.951Z,16.62
2018-06-29T00:59:02.899Z,16.58
2018-06-29T01:00:02.844Z,16.60
2018-06-29T01:01:02.791Z,16.60
2018-06-29T01:02:02.736Z,16.60
2018-06-29T01:03:02.684Z,16.62
2018-06-29T01:04:02.629Z,16.60
2018-06-29T01:05:02.576Z,16.60
2018-06-29T01:06:02.524Z,16.56
2018-06-29T01:07:02.470Z,16.60
2018-06-29T01:08:02.416Z,16.56
2018-06-29T01:09:02.361Z,16.60
2018-06-29T01:10:02.306Z,16.58
2018-06-29T01:11:02.252Z,16.60
2018-06-29T01:12:02.202Z,16.70
2018-06-29T01:13:02.142Z,16.58
2018-06-29T01:14:02.092Z,16.67
2018-06-29T01:15:02.040Z,16.62
2018-06-29T01:16:01.981Z,16.62
2018-06-29T01:17:01.928Z,16.60
2018-06-29T01:18:01.872Z,16.60
2018-06-29T01:19:01.821Z,16.59
2018-06-29T01:20:01.766Z,16.55
2018-06-29T01:21:01.712Z,16.50
2018-06-29T01:22:01.657Z,16.58
2018-06-29T01:23:01.609Z,16.56
2018-06-29T01:24:01.550Z,16.48
2018-06-29T01:25:01.498Z,16.49
2018-06-29T01:26:01.442Z,16.45
2018-06-29T01:27:01.389Z,16.48
2018-06-29T01:28:01.334Z,16.53
2018-06-29T01:29:01.281Z,16.58
2018-06-29T01:30:01.227Z,16.58
2018-06-29T01:31:01.172Z,16.59
2018-06-29T01:32:01.118Z,16.55
2018-06-29T01:33:01.064Z,16.62
2018-06-29T01:34:01.010Z,16.58
2018-06-29T01:35:00.956Z,16.55
2018-06-29T01:36:00.906Z,16.52
2018-06-29T01:37:00.848Z,16.58
2018-06-29T01:38:00.794Z,16.56
2018-06-29T01:39:00.740Z,16.60
2018-06-29T01:40:00.686Z,16.56
2018-06-29T01:41:00.633Z,16.55
2018-06-29T01:42:00.577Z,16.55
2018-06-29T01:43:00.524Z,16.56
2018-06-29T01:44:00.472Z,16.56
2018-06-29T01:45:00.418Z,16.63
2018-06-29T01:46:00.362Z,16.58
2018-06-29T01:47:00.307Z,16.67
2018-06-29T01:48:00.254Z,16.71
2018-06-29T01:49:00.202Z,16.67
2018-06-29T01:50:00.147Z,16.60
2018-06-29T01:51:00.094Z,16.58
2018-06-29T01:52:00.040Z,16.59
2018-06-29T01:52:59.984Z,16.56
2018-06-29T01:53:59.984Z,16.59
2018-06-29T01:54:59.876Z,16.59
2018-06-29T01:55:59.823Z,16.55
2018-06-29T01:56:59.772Z,16.59
2018-06-29T01:57:59.713Z,16.59
2018-06-29T01:58:59.662Z,16.55
2018-06-29T01:59:59.605Z,16.56
2018-06-29T02:00:59.553Z,16.56
2018-06-29T02:01:59.506Z,16.62
2018-06-29T02:02:59.445Z,16.56
2018-06-29T02:03:59.392Z,16.58
2018-06-29T02:04:59.336Z,16.53
2018-06-29T02:05:59.281Z,16.56
2018-06-29T02:06:59.226Z,16.70
2018-06-29T02:07:59.223Z,16.58
2018-06-29T02:08:59.120Z,16.71
2018-06-29T02:09:59.065Z,16.63
2018-06-29T02:10:59.010Z,16.73
2018-06-29T02:11:58.960Z,16.71
2018-06-29T02:12:58.907Z,16.67
2018-06-29T02:13:58.849Z,16.70
2018-06-29T02:14:58.804Z,16.60
2018-06-29T02:15:58.741Z,16.55
2018-06-29T02:16:58.687Z,16.55
2018-06-29T02:17:58.634Z,16.65
2018-06-29T02:18:58.579Z,16.56
2018-06-29T02:19:58.525Z,16.56
2018-06-29T02:20:58.476Z,16.58
2018-06-29T02:21:58.417Z,16.56
2018-06-29T02:22:58.363Z,16.56
2018-06-29T02:23:58.309Z,16.59
2018-06-29T02:24:58.256Z,16.58
2018-06-29T02:25:58.201Z,16.60
2018-06-29T02:26:58.147Z,16.56
2018-06-29T02:27:58.094Z,16.56
2018-06-29T02:28:58.042Z,16.59
2018-06-29T02:29:57.986Z,16.60
2018-06-29T02:30:57.931Z,16.58
2018-06-29T02:31:57.879Z,16.63
2018-06-29T02:32:57.825Z,16.56
2018-06-29T02:33:57.768Z,16.56
2018-06-29T02:34:57.716Z,16.71
2018-06-29T02:35:57.666Z,16.71
2018-06-29T02:36:57.610Z,16.58
2018-06-29T02:37:57.556Z,16.58
2018-06-29T02:38:57.501Z,16.52
2018-06-29T02:39:57.450Z,16.70
2018-06-29T02:40:57.395Z,16.55
2018-06-29T02:41:57.342Z,16.55
2018-06-29T02:42:57.285Z,16.65
2018-06-29T02:43:57.233Z,16.56
2018-06-29T02:44:57.179Z,16.67
2018-06-29T02:45:57.124Z,16.63
2018-06-29T02:46:57.076Z,16.70
2018-06-29T02:47:57.016Z,16.68
2018-06-29T02:48:56.964Z,16.65
2018-06-29T02:49:56.911Z,16.63
2018-06-29T02:50:56.855Z,16.73
2018-06-29T02:51:56.803Z,16.67
2018-06-29T02:52:56.750Z,16.68
2018-06-29T02:53:56.694Z,16.65
2018-06-29T02:54:56.641Z,16.71
2018-06-29T02:55:56.595Z,16.75
2018-06-29T02:56:56.536Z,16.70
2018-06-29T02:57:56.484Z,16.78
2018-06-29T02:58:56.429Z,16.73
2018-06-29T02:59:56.376Z,16.77
2018-06-29T03:00:56.319Z,16.71
2018-06-29T03:01:56.267Z,16.74
2018-06-29T03:02:56.213Z,16.86
2018-06-29T03:03:56.157Z,16.86
2018-06-29T03:04:56.106Z,16.75
2018-06-29T03:05:56.051Z,16.85
2018-06-29T03:06:55.998Z,16.80
2018-06-29T03:07:55.942Z,16.83
2018-06-29T03:08:55.890Z,16.75
2018-06-29T03:09:55.837Z,16.80
2018-06-29T03:10:55.781Z,16.77
2018-06-29T03:11:55.729Z,16.78
2018-06-29T03:12:55.676Z,16.75
2018-06-29T03:13:55.626Z,16.75
2018-06-29T03:14:55.567Z,16.71
2018-06-29T03:15:55.515Z,16.74
2018-06-29T03:16:55.461Z,16.68
2018-06-29T03:17:55.405Z,16.67
2018-06-29T03:18:55.352Z,16.68
2018-06-29T03:19:55.298Z,16.75
2018-06-29T03:20:55.245Z,16.77
2018-06-29T03:21:55.191Z,16.77
2018-06-29T03:22:55.138Z,16.77
2018-06-29T03:23:55.084Z,16.74
2018-06-29T03:24:55.033Z,16.75
2018-06-29T03:25:54.978Z,16.85
2018-06-29T03:26:54.922Z,16.75
2018-06-29T03:27:54.873Z,16.78
2018-06-29T03:28:54.816Z,16.75
2018-06-29T03:29:54.761Z,16.83
2018-06-29T03:30:54.708Z,16.83
2018-06-29T03:31:54.655Z,16.86
2018-06-29T03:32:54.608Z,16.86
2018-06-29T03:33:54.546Z,16.89
2018-06-29T03:34:54.493Z,16.90
2018-06-29T03:35:54.440Z,16.90
2018-06-29T03:36:54.385Z,16.96
2018-06-29T03:37:54.331Z,16.99
2018-06-29T03:38:54.278Z,16.96
2018-06-29T03:39:54.224Z,16.95
2018-06-29T03:40:54.172Z,16.89
2018-06-29T03:41:54.117Z,16.93
2018-06-29T03:42:54.065Z,16.92
2018-06-29T03:43:54.023Z,16.95
2018-06-29T03:44:53.958Z,16.96
2018-06-29T03:45:53.904Z,16.86
2018-06-29T03:46:53.860Z,16.90
2018-06-29T03:47:53.797Z,16.90
2018-06-29T03:48:53.743Z,16.92
2018-06-29T03:49:53.689Z,16.92
2018-06-29T03:50:53.635Z,16.89
2018-06-29T03:51:53.591Z,16.77
2018-06-29T03:52:53.528Z,16.86
2018-06-29T03:53:53.475Z,16.86
2018-06-29T03:54:53.421Z,16.81
2018-06-29T03:55:53.368Z,16.78
2018-06-29T03:56:53.316Z,16.92
2018-06-29T03:57:53.262Z,16.85
2018-06-29T03:58:53.206Z,16.89
2018-06-29T03:59:53.155Z,16.90
2018-06-29T04:00:53.100Z,16.86
2018-06-29T04:01:53.045Z,16.89
2018-06-29T04:02:52.996Z,16.89
2018-06-29T04:03:52.940Z,16.88
2018-06-29T04:04:52.886Z,16.95
2018-06-29T04:05:52.831Z,16.96
2018-06-29T04:06:52.776Z,16.95
2018-06-29T04:07:52.724Z,16.93
2018-06-29T04:08:52.671Z,16.88
2018-06-29T04:09:52.620Z,16.99
2018-06-29T04:10:52.567Z,16.96
2018-06-29T04:11:52.510Z,16.88
2018-06-29T04:12:52.496Z,16.93
2018-06-29T04:13:52.402Z,16.96
2018-06-29T04:14:52.350Z,16.96
2018-06-29T04:15:52.296Z,16.99
2018-06-29T04:16:52.243Z,16.99
2018-06-29T04:17:52.188Z,17.03
2018-06-29T04:18:52.136Z,16.93
2018-06-29T04:19:52.082Z,16.98
2018-06-29T04:20:52.029Z,17.00
2018-06-29T04:21:51.975Z,16.96
2018-06-29T04:22:51.922Z,17.03
2018-06-29T04:23:51.869Z,16.93
2018-06-29T04:24:51.815Z,16.98
2018-06-29T04:25:51.763Z,17.03
2018-06-29T04:26:51.707Z,17.00
2018-06-29T04:27:51.657Z,16.98
2018-06-29T04:28:51.601Z,17.00
2018-06-29T04:29:51.552Z,16.98
2018-06-29T04:30:51.493Z,16.98
2018-06-29T04:31:51.441Z,17.03
2018-06-29T04:32:51.460Z,17.03
2018-06-29T04:33:51.335Z,17.00
2018-06-29T04:34:51.285Z,16.99
2018-06-29T04:35:51.228Z,16.92
2018-06-29T04:36:51.175Z,17.00
2018-06-29T04:37:51.123Z,16.98
2018-06-29T04:38:51.068Z,16.99
2018-06-29T04:39:51.016Z,17.00
2018-06-29T04:40:50.962Z,17.03
2018-06-29T04:41:50.912Z,17.04
2018-06-29T04:42:50.888Z,17.04
2018-06-29T04:43:50.802Z,16.95
2018-06-29T04:44:50.747Z,17.00
2018-06-29T04:45:50.696Z,16.92
2018-06-29T04:46:50.640Z,16.90
2018-06-29T04:47:50.587Z,17.00
2018-06-29T04:48:50.536Z,16.90
2018-06-29T04:49:50.479Z,16.92
2018-06-29T04:50:50.426Z,16.98
2018-06-29T04:51:50.374Z,16.95
2018-06-29T04:52:50.321Z,17.03
2018-06-29T04:53:50.269Z,17.04
2018-06-29T04:54:50.213Z,17.07
2018-06-29T04:55:50.159Z,17.08
2018-06-29T04:56:50.105Z,17.15
2018-06-29T04:57:50.051Z,17.18
2018-06-29T04:58:50.000Z,17.14
2018-06-29T04:59:49.946Z,17.11
2018-06-29T05:00:49.907Z,17.17
2018-06-29T05:01:49.842Z,17.20
2018-06-29T05:02:49.786Z,17.22
2018-06-29T05:03:49.732Z,17.26
2018-06-29T05:04:49.681Z,17.25
2018-06-29T05:05:49.624Z,17.36
2018-06-29T05:06:49.570Z,17.28
2018-06-29T05:07:49.519Z,17.32
2018-06-29T05:08:49.465Z,17.29
2018-06-29T05:09:49.410Z,17.41
2018-06-29T05:10:49.359Z,17.35
2018-06-29T05:11:49.307Z,17.40
2018-06-29T05:12:49.254Z,17.41
2018-06-29T05:13:49.197Z,17.46
2018-06-29T05:14:49.145Z,17.41
2018-06-29T05:15:49.145Z,17.54
2018-06-29T05:16:49.040Z,17.53
2018-06-29T05:17:48.984Z,17.48
2018-06-29T05:18:48.934Z,17.57
2018-06-29T05:19:48.880Z,17.55
2018-06-29T05:20:48.825Z,17.57
2018-06-29T05:21:48.772Z,17.47
2018-06-29T05:22:48.720Z,17.54
2018-06-29T05:23:48.668Z,17.59
2018-06-29T05:24:48.613Z,17.47
2018-06-29T05:25:48.561Z,17.55
2018-06-29T05:26:48.519Z,17.53
2018-06-29T05:27:48.458Z,17.54
2018-06-29T05:28:48.402Z,17.63
2018-06-29T05:29:48.349Z,17.66
2018-06-29T05:30:48.294Z,17.67
2018-06-29T05:31:48.243Z,17.69
2018-06-29T05:32:48.192Z,17.66
2018-06-29T05:33:48.136Z,17.70
2018-06-29T05:34:48.083Z,17.73
2018-06-29T05:35:48.039Z,17.73
2018-06-29T05:36:47.978Z,17.81
2018-06-29T05:37:47.924Z,17.76
2018-06-29T05:38:47.872Z,17.78
2018-06-29T05:39:47.821Z,17.84
2018-06-29T05:40:47.767Z,17.79
2018-06-29T05:41:47.750Z,17.79
2018-06-29T05:42:47.772Z,17.79
2018-06-29T05:43:47.606Z,17.71
2018-06-29T05:44:47.555Z,17.79
2018-06-29T05:45:47.502Z,17.84
2018-06-29T05:46:47.449Z,17.92
2018-06-29T05:47:47.395Z,17.87
2018-06-29T05:48:47.344Z,18.02
2018-06-29T05:49:47.290Z,17.99
2018-06-29T05:50:47.237Z,18.02
2018-06-29T05:51:47.185Z,18.03
2018-06-29T05:52:47.132Z,18.03
2018-06-29T05:53:47.080Z,18.00
2018-06-29T05:54:47.026Z,18.00
2018-06-29T05:55:46.974Z,18.09
2018-06-29T05:56:46.924Z,18.12
2018-06-29T05:57:46.868Z,18.09
2018-06-29T05:58:46.817Z,18.12
2018-06-29T05:59:46.766Z,18.13
2018-06-29T06:00:46.712Z,18.12
2018-06-29T06:01:46.662Z,18.06
2018-06-29T06:02:46.606Z,18.07
2018-06-29T06:03:46.554Z,18.12
2018-06-29T06:04:46.524Z,18.06
2018-06-29T06:05:46.448Z,18.15
2018-06-29T06:06:46.395Z,18.13
2018-06-29T06:07:46.346Z,18.17
2018-06-29T06:08:46.292Z,18.13
2018-06-29T06:09:46.238Z,18.25
2018-06-29T06:10:46.186Z,18.24
2018-06-29T06:11:46.132Z,18.28
2018-06-29T06:12:46.081Z,18.25
2018-06-29T06:13:46.032Z,18.22
2018-06-29T06:14:45.976Z,18.22
2018-06-29T06:15:45.922Z,18.28
2018-06-29T06:16:45.871Z,18.28
2018-06-29T06:17:45.815Z,18.24
2018-06-29T06:18:45.764Z,18.27
2018-06-29T06:19:45.712Z,18.25
2018-06-29T06:20:45.658Z,18.27
2018-06-29T06:21:45.606Z,18.24
2018-06-29T06:22:45.556Z,18.42
2018-06-29T06:23:45.502Z,18.40
2018-06-29T06:24:45.449Z,18.54
2018-06-29T06:25:45.397Z,18.54
2018-06-29T06:26:45.344Z,18.54
2018-06-29T06:27:45.292Z,18.73
2018-06-29T06:28:45.245Z,18.57
2018-06-29T06:29:45.190Z,18.55
2018-06-29T06:30:45.136Z,18.61
2018-06-29T06:31:45.086Z,18.61
2018-06-29T06:32:45.035Z,18.65
2018-06-29T06:33:44.979Z,18.64
2018-06-29T06:34:44.930Z,18.65
2018-06-29T06:35:44.875Z,18.65
2018-06-29T06:36:44.824Z,18.79
2018-06-29T06:37:44.770Z,18.73
2018-06-29T06:38:44.717Z,18.82
2018-06-29T06:39:44.666Z,18.79
2018-06-29T06:40:44.613Z,18.80
2018-06-29T06:41:44.625Z,18.80
2018-06-29T06:42:44.510Z,18.90
2018-06-29T06:43:44.457Z,18.95
2018-06-29T06:44:44.406Z,18.92
2018-06-29T06:45:44.355Z,19.01
2018-06-29T06:46:44.307Z,19.20
2018-06-29T06:47:44.250Z,19.10
2018-06-29T06:48:44.198Z,19.15
2018-06-29T06:49:44.145Z,19.24
2018-06-29T06:50:44.095Z,19.24
2018-06-29T06:51:44.042Z,19.35
2018-06-29T06:52:43.992Z,19.24
2018-06-29T06:53:43.997Z,19.39
2018-06-29T06:54:43.887Z,19.39
2018-06-29T06:55:43.841Z,19.48
2018-06-29T06:56:43.791Z,19.51
2018-06-29T06:57:43.731Z,19.50
2018-06-29T06:58:43.686Z,19.46
2018-06-29T06:59:43.629Z,19.57
2018-06-29T07:00:43.577Z,19.53
2018-06-29T07:01:43.528Z,19.60
2018-06-29T07:02:43.482Z,19.66
2018-06-29T07:03:43.423Z,19.69
2018-06-29T07:04:43.371Z,19.54
2018-06-29T07:05:43.321Z,19.66
2018-06-29T07:06:43.268Z,19.72
2018-06-29T07:07:43.217Z,19.73
2018-06-29T07:08:43.166Z,19.70
2018-06-29T07:09:43.114Z,19.83
2018-06-29T07:10:43.062Z,19.75
2018-06-29T07:11:43.011Z,19.84
2018-06-29T07:12:42.970Z,19.79
2018-06-29T07:13:42.908Z,19.75
2018-06-29T07:14:42.855Z,19.88
2018-06-29T07:15:42.807Z,19.78
2018-06-29T07:16:42.754Z,19.83
2018-06-29T07:17:42.715Z,19.84
2018-06-29T07:18:42.653Z,19.84
2018-06-29T07:19:42.599Z,19.86
2018-06-29T07:20:42.548Z,19.80
2018-06-29T07:21:42.495Z,19.88
2018-06-29T07:22:42.446Z,19.90
2018-06-29T07:23:42.393Z,19.88
2018-06-29T07:24:42.341Z,19.78
2018-06-29T07:25:42.291Z,19.78
2018-06-29T07:26:42.238Z,19.78
2018-06-29T07:27:42.190Z,19.86
2018-06-29T07:28:42.135Z,19.84
2018-06-29T07:29:42.083Z,19.73
2018-06-29T07:30:42.038Z,19.68
2018-06-29T07:31:41.981Z,19.76
2018-06-29T07:32:41.930Z,19.75
2018-06-29T07:33:41.878Z,19.78
2018-06-29T07:34:41.828Z,19.88
2018-06-29T07:35:41.778Z,19.83
2018-06-29T07:36:41.728Z,19.83
2018-06-29T07:37:41.671Z,19.90
2018-06-29T07:38:41.641Z,19.83
2018-06-29T07:39:41.568Z,19.88
2018-06-29T07:40:41.518Z,19.95
2018-06-29T07:41:41.471Z,19.90
2018-06-29T07:42:41.414Z,19.94
2018-06-29T07:43:41.365Z,19.98
2018-06-29T07:44:41.313Z,19.97
2018-06-29T07:45:41.261Z,19.97
2018-06-29T07:46:41.282Z,19.95
2018-06-29T07:47:41.159Z,20.09
2018-06-29T07:48:41.108Z,20.12
2018-06-29T07:49:41.055Z,20.20
2018-06-29T07:50:41.004Z,20.25
2018-06-29T07:51:40.953Z,20.31
2018-06-29T07:52:40.903Z,20.28
2018-06-29T07:53:40.854Z,20.35
2018-06-29T07:54:40.803Z,20.43
2018-06-29T07:55:40.750Z,20.53
2018-06-29T07:56:40.699Z,20.61
2018-06-29T07:57:40.646Z,20.72
2018-06-29T07:58:40.654Z,20.72
2018-06-29T07:59:40.546Z,20.64
2018-06-29T08:00:40.494Z,20.65
2018-06-29T08:01:40.445Z,20.59
2018-06-29T08:02:40.404Z,20.61
2018-06-29T08:03:40.343Z,20.69
2018-06-29T08:04:40.292Z,20.66
2018-06-29T08:05:40.242Z,20.76
2018-06-29T08:06:40.191Z,20.81
2018-06-29T08:07:40.142Z,20.69
2018-06-29T08:08:40.089Z,20.74
2018-06-29T08:09:40.039Z,20.72
2018-06-29T08:10:39.995Z,20.72
2018-06-29T08:11:39.943Z,20.86
2018-06-29T08:12:39.888Z,20.84
2018-06-29T08:13:39.836Z,20.79
2018-06-29T08:14:39.787Z,20.86
2018-06-29T08:15:39.736Z,20.86
2018-06-29T08:16:39.685Z,20.90
2018-06-29T08:17:39.635Z,20.83
2018-06-29T08:18:39.583Z,20.71
2018-06-29T08:19:39.534Z,20.72
2018-06-29T08:20:39.483Z,20.62
2018-06-29T08:21:39.434Z,20.59
2018-06-29T08:22:39.383Z,20.66
2018-06-29T08:23:39.331Z,20.80
2018-06-29T08:24:39.282Z,20.76
2018-06-29T08:25:39.231Z,20.80
2018-06-29T08:26:39.182Z,20.76
2018-06-29T08:27:39.130Z,20.65
2018-06-29T08:28:39.080Z,20.68
2018-06-29T08:29:39.033Z,20.61
2018-06-29T08:30:38.976Z,20.54
2018-06-29T08:31:38.927Z,20.54
2018-06-29T08:32:38.876Z,20.49
2018-06-29T08:33:38.839Z,20.51
2018-06-29T08:34:38.775Z,20.59
2018-06-29T08:35:38.724Z,20.56
2018-06-29T08:36:38.674Z,20.61
2018-06-29T08:37:38.623Z,20.61
2018-06-29T08:38:38.628Z,20.64
2018-06-29T08:39:38.522Z,20.66
2018-06-29T08:40:38.472Z,20.65
2018-06-29T08:41:38.420Z,20.64
2018-06-29T08:42:38.370Z,20.64
2018-06-29T08:43:38.318Z,20.65
2018-06-29T08:44:38.272Z,20.83
2018-06-29T08:45:38.218Z,20.91
2018-06-29T08:46:38.181Z,20.87
2018-06-29T08:47:38.117Z,20.87
2018-06-29T08:48:38.067Z,20.91
2018-06-29T08:49:38.049Z,20.98
2018-06-29T08:50:37.966Z,21.02
2018-06-29T08:51:37.914Z,21.01
2018-06-29T08:52:37.865Z,21.13
2018-06-29T08:53:37.812Z,21.06
2018-06-29T08:54:37.764Z,21.08
2018-06-29T08:55:37.716Z,21.14
2018-06-29T08:56:37.662Z,21.26
2018-06-29T08:57:37.614Z,21.36
2018-06-29T08:58:37.563Z,21.42
2018-06-29T08:59:37.512Z,21.56
2018-06-29T09:00:37.466Z,21.54
2018-06-29T09:01:37.412Z,21.61
2018-06-29T09:02:37.360Z,21.67
2018-06-29T09:03:37.311Z,21.64
2018-06-29T09:04:37.261Z,21.63
2018-06-29T09:05:37.232Z,21.64
2018-06-29T09:06:37.160Z,21.66
2018-06-29T09:07:37.112Z,21.75
2018-06-29T09:08:37.067Z,21.76
2018-06-29T09:09:37.010Z,21.82
2018-06-29T09:10:36.960Z,21.92
2018-06-29T09:11:36.912Z,21.91
2018-06-29T09:12:36.863Z,21.99
2018-06-29T09:13:36.812Z,21.97
2018-06-29T09:14:36.767Z,21.83
2018-06-29T09:15:36.713Z,21.76
2018-06-29T09:16:36.663Z,21.81
2018-06-29T09:17:36.612Z,21.78
2018-06-29T09:18:36.563Z,21.78
2018-06-29T09:19:36.513Z,21.78
2018-06-29T09:20:36.464Z,21.90
2018-06-29T09:21:36.420Z,21.76
2018-06-29T09:22:36.364Z,21.79
2018-06-29T09:23:36.318Z,21.76
2018-06-29T09:24:36.268Z,21.79
2018-06-29T09:25:36.222Z,21.81
2018-06-29T09:26:36.164Z,21.88
2018-06-29T09:27:36.116Z,21.91
2018-06-29T09:28:36.065Z,21.88
2018-06-29T09:29:36.018Z,21.94
2018-06-29T09:30:35.966Z,21.88
2018-06-29T09:31:35.918Z,21.97
2018-06-29T09:32:35.869Z,21.90
2018-06-29T09:33:35.819Z,21.91
2018-06-29T09:34:35.770Z,21.98
2018-06-29T09:35:35.719Z,21.91
2018-06-29T09:36:35.674Z,22.06
2018-06-29T09:37:35.618Z,22.04
2018-06-29T09:38:35.571Z,21.99
2018-06-29T09:39:35.521Z,21.95
2018-06-29T09:40:35.471Z,21.98
2018-06-29T09:41:35.423Z,22.01
2018-06-29T09:42:35.393Z,21.99
2018-06-29T09:43:35.322Z,22.04
2018-06-29T09:44:35.273Z,22.10
2018-06-29T09:45:35.223Z,22.07
2018-06-29T09:46:35.173Z,22.25
2018-06-29T09:47:35.122Z,22.29
2018-06-29T09:48:35.074Z,22.27
2018-06-29T09:49:35.029Z,22.29
2018-06-29T09:50:34.976Z,22.34
2018-06-29T09:51:34.925Z,22.29
2018-06-29T09:52:34.875Z,22.29
2018-06-29T09:53:34.829Z,22.41
2018-06-29T09:54:34.777Z,22.49
2018-06-29T09:55:34.728Z,22.56
2018-06-29T09:56:34.683Z,22.64
2018-06-29T09:57:34.628Z,22.60
2018-06-29T09:58:34.579Z,22.62
2018-06-29T09:59:34.530Z,22.60
2018-06-29T10:00:34.505Z,22.75
2018-06-29T10:01:34.431Z,22.67
2018-06-29T10:02:39.276Z,22.64
2018-06-29T10:03:34.333Z,22.71
2018-06-29T10:04:34.285Z,22.84
2018-06-29T10:05:34.238Z,22.97
2018-06-29T10:06:34.217Z,23.02
2018-06-29T10:07:34.137Z,23.04
2018-06-29T10:08:34.088Z,23.15
2018-06-29T10:09:34.038Z,23.09
2018-06-29T10:10:33.993Z,23.29
2018-06-29T10:11:33.941Z,23.29
2018-06-29T10:12:33.893Z,23.38
2018-06-29T10:13:33.843Z,23.39
2018-06-29T10:14:33.794Z,23.43
2018-06-29T10:15:33.747Z,23.43
2018-06-29T10:16:33.702Z,23.52
2018-06-29T10:17:33.649Z,23.71
2018-06-29T10:18:33.605Z,23.79
2018-06-29T10:19:33.618Z,23.87
2018-06-29T10:20:33.503Z,23.95
2018-06-29T10:21:33.455Z,23.97
2018-06-29T10:22:33.519Z,23.95
2018-06-29T10:23:33.358Z,23.98
2018-06-29T10:24:33.315Z,23.90
2018-06-29T10:25:33.306Z,23.95
2018-06-29T10:26:33.211Z,23.92
2018-06-29T10:27:33.162Z,23.97
2018-06-29T10:28:33.114Z,23.92
2018-06-29T10:29:33.067Z,23.80
2018-06-29T10:30:33.020Z,23.85
2018-06-29T10:31:32.969Z,23.82
2018-06-29T10:32:32.922Z,23.75
2018-06-29T10:33:32.872Z,23.68
2018-06-29T10:34:32.823Z,23.75
2018-06-29T10:35:32.779Z,23.67
2018-06-29T10:36:32.740Z,23.62
2018-06-29T10:37:32.679Z,23.53
2018-06-29T10:38:32.631Z,23.50
2018-06-29T10:39:32.585Z,23.53
2018-06-29T10:40:32.533Z,23.60
2018-06-29T10:41:32.511Z,23.64
2018-06-29T10:42:32.434Z,23.79
2018-06-29T10:43:32.386Z,23.65
2018-06-29T10:44:32.383Z,23.72
2018-06-29T10:45:32.288Z,23.77
2018-06-29T10:46:32.243Z,23.72
2018-06-29T10:47:32.191Z,23.68
2018-06-29T10:48:32.143Z,23.75
2018-06-29T10:49:32.094Z,23.79
2018-06-29T10:50:32.044Z,23.82
2018-06-29T10:51:31.997Z,23.94
2018-06-29T10:52:31.947Z,24.13
2018-06-29T10:53:31.902Z,24.19
2018-06-29T10:54:31.852Z,24.42
2018-06-29T10:55:31.803Z,24.41
2018-06-29T10:56:31.754Z,24.61
2018-06-29T10:57:31.707Z,24.71
2018-06-29T10:58:31.659Z,24.85
2018-06-29T10:59:31.609Z,25.01
2018-06-29T11:00:31.564Z,25.15
2018-06-29T11:01:31.511Z,25.20
2018-06-29T11:02:31.464Z,25.31
2018-06-29T11:03:31.414Z,25.49
2018-06-29T11:04:31.367Z,25.49
2018-06-29T11:05:31.363Z,25.53
2018-06-29T11:06:31.270Z,25.46
2018-06-29T11:07:31.244Z,25.46
2018-06-29T11:08:31.182Z,25.46
2018-06-29T11:09:31.185Z,25.59
2018-06-29T11:10:31.089Z,25.62
2018-06-29T11:11:31.033Z,25.56
2018-06-29T11:12:30.987Z,25.62
2018-06-29T11:13:30.936Z,25.56
2018-06-29T11:14:30.889Z,25.64
2018-06-29T11:15:30.842Z,25.53
2018-06-29T11:16:30.795Z,25.46
2018-06-29T11:17:30.753Z,25.50
2018-06-29T11:18:30.700Z,25.57
2018-06-29T11:19:30.653Z,25.67
2018-06-29T11:20:30.605Z,25.72
2018-06-29T11:21:30.558Z,25.64
2018-06-29T11:22:30.567Z,25.68
2018-06-29T11:23:30.464Z,25.93
2018-06-29T11:24:30.417Z,26.06
2018-06-29T11:25:30.367Z,26.01
2018-06-29T11:26:30.327Z,26.18
2018-06-29T11:27:30.275Z,26.28
2018-06-29T11:28:30.228Z,26.49
2018-06-29T11:29:30.180Z,26.64
2018-06-29T11:30:30.134Z,26.68
2018-06-29T11:31:30.087Z,26.61
2018-06-29T11:32:30.043Z,26.58
2018-06-29T11:33:29.992Z,26.57
2018-06-29T11:34:29.947Z,26.64
2018-06-29T11:35:29.898Z,26.59
2018-06-29T11:36:29.852Z,26.47
2018-06-29T11:37:29.806Z,26.62
2018-06-29T11:38:29.758Z,26.64
2018-06-29T11:39:29.710Z,26.54
2018-06-29T11:40:29.664Z,26.44
2018-06-29T11:41:29.618Z,26.62
2018-06-29T11:42:29.661Z,26.62
2018-06-29T11:43:29.527Z,26.68
2018-06-29T11:44:29.480Z,26.84
2018-06-29T11:45:29.432Z,27.04
2018-06-29T11:46:29.384Z,27.19
2018-06-29T11:47:29.338Z,27.13
2018-06-29T11:48:29.290Z,26.95
2018-06-29T11:49:29.244Z,26.76
2018-06-29T11:50:29.198Z,26.72
2018-06-29T11:51:29.185Z,26.74
2018-06-29T11:52:29.105Z,26.50
2018-06-29T11:53:29.057Z,26.35
2018-06-29T11:54:29.010Z,26.46
2018-06-29T11:55:28.964Z,26.68
2018-06-29T11:56:28.951Z,26.72
2018-06-29T11:57:28.872Z,26.68
2018-06-29T11:58:28.824Z,26.77
2018-06-29T11:59:28.817Z,26.57
2018-06-29T12:00:28.731Z,26.49
2018-06-29T12:01:28.685Z,26.74
2018-06-29T12:02:28.637Z,26.84
2018-06-29T12:03:28.594Z,26.89
2018-06-29T12:04:28.546Z,26.99
2018-06-29T12:05:28.497Z,26.96
2018-06-29T12:06:28.452Z,27.14
2018-06-29T12:07:28.404Z,27.32
2018-06-29T12:08:28.360Z,27.05
2018-06-29T12:09:28.310Z,26.91
2018-06-29T12:10:28.269Z,26.81
2018-06-29T12:11:28.219Z,26.92
2018-06-29T12:12:28.171Z,27.11
2018-06-29T12:13:28.124Z,26.77
2018-06-29T12:14:28.078Z,26.86
2018-06-29T12:15:28.034Z,26.96
2018-06-29T12:16:27.988Z,27.05
2018-06-29T12:17:27.940Z,27.17
2018-06-29T12:18:27.893Z,27.16
2018-06-29T12:19:27.849Z,27.26
2018-06-29T12:20:27.803Z,27.16
2018-06-29T12:21:27.752Z,27.23
2018-06-29T12:22:27.707Z,27.43
2018-06-29T12:23:27.689Z,27.48
2018-06-29T12:24:27.615Z,27.54
2018-06-29T12:25:27.586Z,27.67
2018-06-29T12:26:27.520Z,27.51
2018-06-29T12:27:27.473Z,27.54
2018-06-29T12:28:27.429Z,27.59
2018-06-29T12:29:27.381Z,27.57
2018-06-29T12:30:27.336Z,27.51
2018-06-29T12:31:27.294Z,27.57
2018-06-29T12:32:27.243Z,27.67
2018-06-29T12:33:27.198Z,27.54
2018-06-29T12:34:27.272Z,27.31
2018-06-29T12:35:27.104Z,27.43
2018-06-29T12:36:27.060Z,27.31
2018-06-29T12:37:27.019Z,26.99
2018-06-29T12:38:26.968Z,26.96
2018-06-29T12:39:26.919Z,26.92
2018-06-29T12:40:26.873Z,26.94
2018-06-29T12:41:26.831Z,27.06
2018-06-29T12:42:26.780Z,27.05
2018-06-29T12:43:26.734Z,26.94
2018-06-29T12:44:26.688Z,27.06
2018-06-29T12:45:26.640Z,27.19
2018-06-29T12:46:26.594Z,27.32
2018-06-29T12:47:26.549Z,27.41
2018-06-29T12:48:26.509Z,27.41
2018-06-29T12:49:26.460Z,27.47
2018-06-29T12:50:26.407Z,27.42
2018-06-29T12:51:26.369Z,27.42